sensor_id;sensor_type;location;lat;lon;timestamp;temperature;humidity
5842;DHT22;2947;52.276;9.946;2023-07-20T00:02:15;17.30;1.00
5842;DHT22;2947;52.276;9.946;2023-07-20T00:04:41;17.20;1.00
5842;DHT22;2947;52.276;9.946;2023-07-20T00:07:07;17.20;1.00
5842;DHT22;2947;52.276;9.946;2023-07-20T00:09:34;17.10;1.00
5842;DHT22;2947;52.276;9.946;2023-07-20T00:11:59;16.90;1.00
5842;DHT22;2947;52.276;9.946;2023-07-20T00:14:25;16.80;1.00
5842;DHT22;2947;52.276;9.946;2023-07-20T00:16:51;16.70;1.00
5842;DHT22;2947;52.276;9.946;2023-07-20T00:19:30;16.60;1.00
5842;DHT22;2947;52.276;9.946;2023-07-20T00:21:57;16.40;1.00
5842;DHT22;2947;52.276;9.946;2023-07-20T00:24:23;16.40;1.00
5842;DHT22;2947;52.276;9.946;2023-07-20T00:26:49;16.40;1.00
5842;DHT22;2947;52.276;9.946;2023-07-20T00:29:15;16.40;1.00
5842;DHT22;2947;52.276;9.946;2023-07-20T00:31:41;16.40;1.00
5842;DHT22;2947;52.276;9.946;2023-07-20T00:34:09;16.50;1.00
5842;DHT22;2947;52.276;9.946;2023-07-20T00:36:34;16.40;1.00
5842;DHT22;2947;52.276;9.946;2023-07-20T00:39:03;16.50;1.00
5842;DHT22;2947;52.276;9.946;2023-07-20T00:41:29;16.50;1.00
5842;DHT22;2947;52.276;9.946;2023-07-20T00:43:55;16.50;1.00
5842;DHT22;2947;52.276;9.946;2023-07-20T00:46:23;16.60;1.00
5842;DHT22;2947;52.276;9.946;2023-07-20T00:48:50;16.60;1.00
5842;DHT22;2947;52.276;9.946;2023-07-20T00:51:15;16.50;1.00
5842;DHT22;2947;52.276;9.946;2023-07-20T00:53:41;16.40;1.00
5842;DHT22;2947;52.276;9.946;2023-07-20T00:56:07;16.50;1.00
5842;DHT22;2947;52.276;9.946;2023-07-20T00:58:35;16.50;1.00
5842;DHT22;2947;52.276;9.946;2023-07-20T01:01:01;16.50;1.00
5842;DHT22;2947;52.276;9.946;2023-07-20T01:03:28;16.40;1.00
5842;DHT22;2947;52.276;9.946;2023-07-20T01:06:00;16.40;1.00
5842;DHT22;2947;52.276;9.946;2023-07-20T01:08:46;16.40;1.00
5842;DHT22;2947;52.276;9.946;2023-07-20T01:11:23;16.40;1.00
5842;DHT22;2947;52.276;9.946;2023-07-20T01:14:03;16.30;1.00
5842;DHT22;2947;52.276;9.946;2023-07-20T01:16:30;16.20;1.00
5842;DHT22;2947;52.276;9.946;2023-07-20T01:18:56;16.20;1.00
5842;DHT22;2947;52.276;9.946;2023-07-20T01:21:26;16.20;1.00
5842;DHT22;2947;52.276;9.946;2023-07-20T01:31:16;16.00;1.00
5842;DHT22;2947;52.276;9.946;2023-07-20T01:33:44;16.70;15.50
5842;DHT22;2947;52.276;9.946;2023-07-20T01:36:11;16.00;13.30
5842;DHT22;2947;52.276;9.946;2023-07-20T01:38:38;16.10;1.00
5842;DHT22;2947;52.276;9.946;2023-07-20T01:41:05;15.90;19.40
5842;DHT22;2947;52.276;9.946;2023-07-20T01:43:30;14.50;15.40
5842;DHT22;2947;52.276;9.946;2023-07-20T01:45:56;17.20;15.30
5842;DHT22;2947;52.276;9.946;2023-07-20T01:48:22;16.00;8.60
5842;DHT22;2947;52.276;9.946;2023-07-20T01:50:48;16.00;7.40
5842;DHT22;2947;52.276;9.946;2023-07-20T01:53:13;16.10;9.10
5842;DHT22;2947;52.276;9.946;2023-07-20T01:55:39;17.40;12.70
5842;DHT22;2947;52.276;9.946;2023-07-20T01:58:05;15.90;2.80
5842;DHT22;2947;52.276;9.946;2023-07-20T02:00:32;15.90;14.30
5842;DHT22;2947;52.276;9.946;2023-07-20T02:02:57;15.90;11.60
5842;DHT22;2947;52.276;9.946;2023-07-20T02:05:23;15.90;20.90
5842;DHT22;2947;52.276;9.946;2023-07-20T02:07:49;15.90;18.60
5842;DHT22;2947;52.276;9.946;2023-07-20T02:10:15;16.00;25.40
5842;DHT22;2947;52.276;9.946;2023-07-20T02:12:41;16.00;18.30
5842;DHT22;2947;52.276;9.946;2023-07-20T02:15:07;16.00;29.20
5842;DHT22;2947;52.276;9.946;2023-07-20T02:17:34;16.00;29.70
5842;DHT22;2947;52.276;9.946;2023-07-20T02:19:59;17.10;26.90
5842;DHT22;2947;52.276;9.946;2023-07-20T02:22:25;16.40;29.50
5842;DHT22;2947;52.276;9.946;2023-07-20T02:24:51;15.90;31.20
5842;DHT22;2947;52.276;9.946;2023-07-20T02:27:16;15.90;35.40
5842;DHT22;2947;52.276;9.946;2023-07-20T02:29:42;16.00;28.50
5842;DHT22;2947;52.276;9.946;2023-07-20T02:32:09;16.00;23.20
5842;DHT22;2947;52.276;9.946;2023-07-20T02:34:35;16.00;29.00
5842;DHT22;2947;52.276;9.946;2023-07-20T02:37:01;16.00;33.40
5842;DHT22;2947;52.276;9.946;2023-07-20T02:39:30;15.90;29.70
5842;DHT22;2947;52.276;9.946;2023-07-20T02:41:56;16.70;37.50
5842;DHT22;2947;52.276;9.946;2023-07-20T02:44:21;15.90;30.00
5842;DHT22;2947;52.276;9.946;2023-07-20T02:46:47;16.90;37.50
5842;DHT22;2947;52.276;9.946;2023-07-20T02:49:15;15.90;23.60
5842;DHT22;2947;52.276;9.946;2023-07-20T02:51:41;16.00;24.20
5842;DHT22;2947;52.276;9.946;2023-07-20T02:54:07;16.00;19.50
5842;DHT22;2947;52.276;9.946;2023-07-20T02:56:34;15.90;25.90
5842;DHT22;2947;52.276;9.946;2023-07-20T02:59:01;16.00;19.80
5842;DHT22;2947;52.276;9.946;2023-07-20T03:01:28;16.00;15.90
5842;DHT22;2947;52.276;9.946;2023-07-20T03:03:55;16.00;17.10
5842;DHT22;2947;52.276;9.946;2023-07-20T03:06:21;16.00;17.90
5842;DHT22;2947;52.276;9.946;2023-07-20T03:08:47;15.90;14.10
5842;DHT22;2947;52.276;9.946;2023-07-20T03:11:14;16.00;14.60
5842;DHT22;2947;52.276;9.946;2023-07-20T03:13:42;15.20;6.10
5842;DHT22;2947;52.276;9.946;2023-07-20T03:16:09;16.10;16.20
5842;DHT22;2947;52.276;9.946;2023-07-20T03:18:39;15.90;19.30
5842;DHT22;2947;52.276;9.946;2023-07-20T03:21:06;16.00;17.10
5842;DHT22;2947;52.276;9.946;2023-07-20T03:23:33;16.00;7.50
5842;DHT22;2947;52.276;9.946;2023-07-20T03:25:59;16.00;1.80
5842;DHT22;2947;52.276;9.946;2023-07-20T03:28:26;16.00;13.30
5842;DHT22;2947;52.276;9.946;2023-07-20T03:30:58;15.90;12.60
5842;DHT22;2947;52.276;9.946;2023-07-20T03:33:29;16.00;20.70
5842;DHT22;2947;52.276;9.946;2023-07-20T03:35:55;16.00;17.90
5842;DHT22;2947;52.276;9.946;2023-07-20T03:38:22;15.90;16.60
5842;DHT22;2947;52.276;9.946;2023-07-20T03:40:59;16.00;13.90
5842;DHT22;2947;52.276;9.946;2023-07-20T03:43:27;16.00;13.80
5842;DHT22;2947;52.276;9.946;2023-07-20T03:45:53;16.00;3.80
5842;DHT22;2947;52.276;9.946;2023-07-20T03:48:21;16.00;3.20
5842;DHT22;2947;52.276;9.946;2023-07-20T03:50:49;16.00;11.10
5842;DHT22;2947;52.276;9.946;2023-07-20T03:53:16;16.00;12.50
5842;DHT22;2947;52.276;9.946;2023-07-20T03:55:49;15.90;33.20
5842;DHT22;2947;52.276;9.946;2023-07-20T03:58:17;15.90;64.90
5842;DHT22;2947;52.276;9.946;2023-07-20T04:00:51;15.90;63.70
5842;DHT22;2947;52.276;9.946;2023-07-20T04:03:20;16.00;52.30
5842;DHT22;2947;52.276;9.946;2023-07-20T04:05:46;16.00;64.50
5842;DHT22;2947;52.276;9.946;2023-07-20T04:08:12;16.00;54.10
5842;DHT22;2947;52.276;9.946;2023-07-20T04:10:39;16.00;45.50
5842;DHT22;2947;52.276;9.946;2023-07-20T04:13:07;16.00;50.50
5842;DHT22;2947;52.276;9.946;2023-07-20T04:15:33;16.00;46.30
5842;DHT22;2947;52.276;9.946;2023-07-20T04:17:59;16.00;29.30
5842;DHT22;2947;52.276;9.946;2023-07-20T04:20:26;16.10;41.50
5842;DHT22;2947;52.276;9.946;2023-07-20T04:22:51;16.10;26.50
5842;DHT22;2947;52.276;9.946;2023-07-20T04:25:18;16.50;35.80
5842;DHT22;2947;52.276;9.946;2023-07-20T04:27:44;16.10;33.20
5842;DHT22;2947;52.276;9.946;2023-07-20T04:30:13;16.10;41.20
5842;DHT22;2947;52.276;9.946;2023-07-20T04:32:39;16.10;35.00
5842;DHT22;2947;52.276;9.946;2023-07-20T04:36:02;16.10;30.50
5842;DHT22;2947;52.276;9.946;2023-07-20T04:38:12;16.10;41.10
5842;DHT22;2947;52.276;9.946;2023-07-20T04:40:37;16.10;59.10
5842;DHT22;2947;52.276;9.946;2023-07-20T04:43:03;16.20;48.30
5842;DHT22;2947;52.276;9.946;2023-07-20T04:45:29;16.10;78.90
5842;DHT22;2947;52.276;9.946;2023-07-20T04:47:55;16.10;99.90
5842;DHT22;2947;52.276;9.946;2023-07-20T04:50:21;16.00;99.90
5842;DHT22;2947;52.276;9.946;2023-07-20T04:52:46;16.30;99.90
5842;DHT22;2947;52.276;9.946;2023-07-20T04:55:13;15.90;99.90
5842;DHT22;2947;52.276;9.946;2023-07-20T04:57:39;15.90;99.90
5842;DHT22;2947;52.276;9.946;2023-07-20T05:00:05;15.90;99.90
5842;DHT22;2947;52.276;9.946;2023-07-20T05:02:32;15.80;99.90
5842;DHT22;2947;52.276;9.946;2023-07-20T05:04:57;15.90;99.90
5842;DHT22;2947;52.276;9.946;2023-07-20T05:07:23;16.60;99.90
5842;DHT22;2947;52.276;9.946;2023-07-20T05:09:48;15.90;99.90
5842;DHT22;2947;52.276;9.946;2023-07-20T05:12:14;15.80;99.90
5842;DHT22;2947;52.276;9.946;2023-07-20T05:14:40;15.90;99.90
5842;DHT22;2947;52.276;9.946;2023-07-20T05:17:07;16.60;99.90
5842;DHT22;2947;52.276;9.946;2023-07-20T05:19:33;15.80;99.90
5842;DHT22;2947;52.276;9.946;2023-07-20T05:21:59;15.80;99.90
5842;DHT22;2947;52.276;9.946;2023-07-20T05:24:24;15.80;99.90
5842;DHT22;2947;52.276;9.946;2023-07-20T05:26:50;15.80;99.90
5842;DHT22;2947;52.276;9.946;2023-07-20T05:29:16;15.70;99.90
5842;DHT22;2947;52.276;9.946;2023-07-20T05:31:42;15.60;99.90
5842;DHT22;2947;52.276;9.946;2023-07-20T05:34:08;15.70;99.90
5842;DHT22;2947;52.276;9.946;2023-07-20T05:36:34;15.60;99.90
5842;DHT22;2947;52.276;9.946;2023-07-20T05:39:03;15.50;99.90
5842;DHT22;2947;52.276;9.946;2023-07-20T05:41:29;15.60;99.90
5842;DHT22;2947;52.276;9.946;2023-07-20T05:43:55;15.60;99.90
5842;DHT22;2947;52.276;9.946;2023-07-20T05:46:21;15.50;99.90
5842;DHT22;2947;52.276;9.946;2023-07-20T05:48:46;15.50;99.90
5842;DHT22;2947;52.276;9.946;2023-07-20T05:51:12;15.50;99.90
5842;DHT22;2947;52.276;9.946;2023-07-20T05:53:38;15.40;99.90
5842;DHT22;2947;52.276;9.946;2023-07-20T05:56:04;15.40;99.90
5842;DHT22;2947;52.276;9.946;2023-07-20T05:58:31;15.40;99.90
5842;DHT22;2947;52.276;9.946;2023-07-20T06:00:56;16.40;99.90
5842;DHT22;2947;52.276;9.946;2023-07-20T06:03:22;15.40;99.90
5842;DHT22;2947;52.276;9.946;2023-07-20T06:05:48;15.40;99.90
5842;DHT22;2947;52.276;9.946;2023-07-20T06:08:14;15.40;99.90
5842;DHT22;2947;52.276;9.946;2023-07-20T06:10:40;15.40;99.90
5842;DHT22;2947;52.276;9.946;2023-07-20T06:13:05;15.50;99.90
5842;DHT22;2947;52.276;9.946;2023-07-20T06:15:32;15.50;99.90
5842;DHT22;2947;52.276;9.946;2023-07-20T06:18:01;15.50;99.90
5842;DHT22;2947;52.276;9.946;2023-07-20T06:20:29;15.50;99.90
5842;DHT22;2947;52.276;9.946;2023-07-20T06:22:55;15.40;99.90
5842;DHT22;2947;52.276;9.946;2023-07-20T06:25:21;15.50;99.90
5842;DHT22;2947;52.276;9.946;2023-07-20T06:27:49;15.50;99.90
5842;DHT22;2947;52.276;9.946;2023-07-20T06:30:19;15.50;99.90
5842;DHT22;2947;52.276;9.946;2023-07-20T06:32:45;15.50;99.90
5842;DHT22;2947;52.276;9.946;2023-07-20T06:35:11;16.70;99.90
5842;DHT22;2947;52.276;9.946;2023-07-20T06:37:36;15.60;99.90
5842;DHT22;2947;52.276;9.946;2023-07-20T06:40:03;15.70;99.90
5842;DHT22;2947;52.276;9.946;2023-07-20T06:42:30;15.70;99.90
5842;DHT22;2947;52.276;9.946;2023-07-20T06:44:56;15.70;99.90
5842;DHT22;2947;52.276;9.946;2023-07-20T06:47:22;15.80;99.90
5842;DHT22;2947;52.276;9.946;2023-07-20T06:49:48;15.80;99.90
5842;DHT22;2947;52.276;9.946;2023-07-20T06:52:15;15.90;99.90
5842;DHT22;2947;52.276;9.946;2023-07-20T06:54:41;16.00;99.90
5842;DHT22;2947;52.276;9.946;2023-07-20T06:57:06;16.00;99.90
5842;DHT22;2947;52.276;9.946;2023-07-20T06:59:32;16.00;99.90
5842;DHT22;2947;52.276;9.946;2023-07-20T07:01:59;16.00;99.90
5842;DHT22;2947;52.276;9.946;2023-07-20T07:04:25;15.90;99.90
5842;DHT22;2947;52.276;9.946;2023-07-20T07:06:51;16.00;99.90
5842;DHT22;2947;52.276;9.946;2023-07-20T07:09:17;16.00;99.90
5842;DHT22;2947;52.276;9.946;2023-07-20T07:11:44;16.00;99.90
5842;DHT22;2947;52.276;9.946;2023-07-20T07:14:10;16.10;99.90
5842;DHT22;2947;52.276;9.946;2023-07-20T07:16:35;16.10;99.90
5842;DHT22;2947;52.276;9.946;2023-07-20T07:19:02;16.10;99.90
5842;DHT22;2947;52.276;9.946;2023-07-20T07:21:28;16.20;99.90
5842;DHT22;2947;52.276;9.946;2023-07-20T07:23:55;16.20;99.90
5842;DHT22;2947;52.276;9.946;2023-07-20T07:26:23;16.50;99.90
5842;DHT22;2947;52.276;9.946;2023-07-20T07:28:49;16.60;99.90
5842;DHT22;2947;52.276;9.946;2023-07-20T07:31:15;16.70;99.90
5842;DHT22;2947;52.276;9.946;2023-07-20T07:33:40;16.90;99.90
5842;DHT22;2947;52.276;9.946;2023-07-20T07:36:07;17.80;99.90
5842;DHT22;2947;52.276;9.946;2023-07-20T07:38:33;17.00;99.90
5842;DHT22;2947;52.276;9.946;2023-07-20T07:40:59;17.10;99.90
5842;DHT22;2947;52.276;9.946;2023-07-20T07:43:25;17.30;99.90
5842;DHT22;2947;52.276;9.946;2023-07-20T07:45:54;17.30;99.90
5842;DHT22;2947;52.276;9.946;2023-07-20T07:48:21;17.50;99.90
5842;DHT22;2947;52.276;9.946;2023-07-20T07:50:47;17.50;99.90
5842;DHT22;2947;52.276;9.946;2023-07-20T07:53:13;19.30;99.90
5842;DHT22;2947;52.276;9.946;2023-07-20T07:55:39;17.80;90.90
5842;DHT22;2947;52.276;9.946;2023-07-20T07:58:06;17.90;20.40
5842;DHT22;2947;52.276;9.946;2023-07-20T08:00:31;18.00;1.00
5842;DHT22;2947;52.276;9.946;2023-07-20T08:02:57;17.90;1.00
5842;DHT22;2947;52.276;9.946;2023-07-20T08:05:23;18.00;1.00
5842;DHT22;2947;52.276;9.946;2023-07-20T08:07:49;18.20;1.00
5842;DHT22;2947;52.276;9.946;2023-07-20T08:10:15;18.30;62.10
5842;DHT22;2947;52.276;9.946;2023-07-20T08:12:41;18.60;99.90
5842;DHT22;2947;52.276;9.946;2023-07-20T08:15:07;18.70;99.90
5842;DHT22;2947;52.276;9.946;2023-07-20T08:17:33;18.50;99.90
5842;DHT22;2947;52.276;9.946;2023-07-20T08:19:58;18.80;1.00
5842;DHT22;2947;52.276;9.946;2023-07-20T08:22:24;19.00;99.90
5842;DHT22;2947;52.276;9.946;2023-07-20T08:24:50;19.20;99.90
5842;DHT22;2947;52.276;9.946;2023-07-20T08:27:15;19.30;99.90
5842;DHT22;2947;52.276;9.946;2023-07-20T08:29:42;19.80;99.90
5842;DHT22;2947;52.276;9.946;2023-07-20T08:32:08;19.60;1.00
5842;DHT22;2947;52.276;9.946;2023-07-20T08:34:34;19.70;1.00
5842;DHT22;2947;52.276;9.946;2023-07-20T08:37:00;19.70;1.00
5842;DHT22;2947;52.276;9.946;2023-07-20T08:39:26;19.70;99.90
5842;DHT22;2947;52.276;9.946;2023-07-20T08:41:52;19.70;1.00
5842;DHT22;2947;52.276;9.946;2023-07-20T08:44:17;19.70;1.00
5842;DHT22;2947;52.276;9.946;2023-07-20T08:46:44;19.90;1.00
5842;DHT22;2947;52.276;9.946;2023-07-20T08:49:11;20.00;99.90
5842;DHT22;2947;52.276;9.946;2023-07-20T08:51:37;20.50;1.00
5842;DHT22;2947;52.276;9.946;2023-07-20T08:54:04;20.10;1.00
5842;DHT22;2947;52.276;9.946;2023-07-20T08:56:31;20.10;99.90
5842;DHT22;2947;52.276;9.946;2023-07-20T08:58:59;20.30;99.90
5842;DHT22;2947;52.276;9.946;2023-07-20T09:01:29;20.40;1.00
5842;DHT22;2947;52.276;9.946;2023-07-20T09:03:55;20.40;1.00
5842;DHT22;2947;52.276;9.946;2023-07-20T09:06:22;20.70;1.00
5842;DHT22;2947;52.276;9.946;2023-07-20T09:08:47;21.00;1.00
5842;DHT22;2947;52.276;9.946;2023-07-20T09:11:14;21.20;1.00
5842;DHT22;2947;52.276;9.946;2023-07-20T09:13:40;21.90;1.00
5842;DHT22;2947;52.276;9.946;2023-07-20T09:16:06;21.30;1.00
5842;DHT22;2947;52.276;9.946;2023-07-20T09:18:32;21.40;1.00
5842;DHT22;2947;52.276;9.946;2023-07-20T09:21:04;21.40;1.00
5842;DHT22;2947;52.276;9.946;2023-07-20T09:23:38;21.40;1.00
5842;DHT22;2947;52.276;9.946;2023-07-20T09:26:14;21.70;1.00
5842;DHT22;2947;52.276;9.946;2023-07-20T09:28:50;21.60;1.00
5842;DHT22;2947;52.276;9.946;2023-07-20T09:31:19;21.50;99.90
5842;DHT22;2947;52.276;9.946;2023-07-20T09:33:47;21.60;1.00
5842;DHT22;2947;52.276;9.946;2023-07-20T09:36:14;21.80;1.00
5842;DHT22;2947;52.276;9.946;2023-07-20T09:38:41;22.10;1.00
5842;DHT22;2947;52.276;9.946;2023-07-20T09:41:13;22.30;99.90
5842;DHT22;2947;52.276;9.946;2023-07-20T09:43:40;22.30;99.90
5842;DHT22;2947;52.276;9.946;2023-07-20T09:46:07;23.30;99.90
5842;DHT22;2947;52.276;9.946;2023-07-20T09:48:33;22.20;99.90
5842;DHT22;2947;52.276;9.946;2023-07-20T09:50:58;22.10;99.90
5842;DHT22;2947;52.276;9.946;2023-07-20T09:53:25;22.50;99.90
5842;DHT22;2947;52.276;9.946;2023-07-20T09:55:52;22.10;99.90
5842;DHT22;2947;52.276;9.946;2023-07-20T09:58:19;22.20;99.90
5842;DHT22;2947;52.276;9.946;2023-07-20T10:00:46;22.10;99.90
5842;DHT22;2947;52.276;9.946;2023-07-20T10:03:22;22.50;99.90
5842;DHT22;2947;52.276;9.946;2023-07-20T10:06:08;22.20;99.90
5842;DHT22;2947;52.276;9.946;2023-07-20T10:08:39;22.30;99.90
5842;DHT22;2947;52.276;9.946;2023-07-20T10:11:07;22.50;99.90
5842;DHT22;2947;52.276;9.946;2023-07-20T10:13:37;23.40;99.90
5842;DHT22;2947;52.276;9.946;2023-07-20T10:16:10;22.40;99.90
5842;DHT22;2947;52.276;9.946;2023-07-20T10:21:29;22.60;99.90
5842;DHT22;2947;52.276;9.946;2023-07-20T10:23:59;22.60;99.90
5842;DHT22;2947;52.276;9.946;2023-07-20T10:26:27;22.70;99.90
5842;DHT22;2947;52.276;9.946;2023-07-20T10:28:53;23.10;99.90
5842;DHT22;2947;52.276;9.946;2023-07-20T10:31:19;23.20;99.90
5842;DHT22;2947;52.276;9.946;2023-07-20T10:33:46;23.30;99.90
5842;DHT22;2947;52.276;9.946;2023-07-20T10:36:12;23.50;99.90
5842;DHT22;2947;52.276;9.946;2023-07-20T10:38:42;23.80;99.90
5842;DHT22;2947;52.276;9.946;2023-07-20T10:41:42;24.10;99.90
5842;DHT22;2947;52.276;9.946;2023-07-20T10:44:08;24.10;99.90
5842;DHT22;2947;52.276;9.946;2023-07-20T10:46:44;24.40;99.90
5842;DHT22;2947;52.276;9.946;2023-07-20T10:49:11;24.40;99.90
5842;DHT22;2947;52.276;9.946;2023-07-20T10:51:45;24.50;99.90
5842;DHT22;2947;52.276;9.946;2023-07-20T10:56:42;24.70;99.90
5842;DHT22;2947;52.276;9.946;2023-07-20T10:59:40;24.80;99.90
5842;DHT22;2947;52.276;9.946;2023-07-20T11:02:08;24.60;99.90
5842;DHT22;2947;52.276;9.946;2023-07-20T11:04:39;24.60;99.90
5842;DHT22;2947;52.276;9.946;2023-07-20T11:07:08;24.70;99.90
5842;DHT22;2947;52.276;9.946;2023-07-20T11:09:38;24.70;99.90
5842;DHT22;2947;52.276;9.946;2023-07-20T11:12:11;24.80;99.90
5842;DHT22;2947;52.276;9.946;2023-07-20T11:14:43;24.90;99.90
5842;DHT22;2947;52.276;9.946;2023-07-20T11:17:18;25.00;99.90
5842;DHT22;2947;52.276;9.946;2023-07-20T11:19:55;25.20;99.90
5842;DHT22;2947;52.276;9.946;2023-07-20T11:22:21;24.70;99.90
5842;DHT22;2947;52.276;9.946;2023-07-20T11:24:47;24.50;99.90
5842;DHT22;2947;52.276;9.946;2023-07-20T11:27:15;24.60;99.90
5842;DHT22;2947;52.276;9.946;2023-07-20T11:29:41;24.60;99.90
5842;DHT22;2947;52.276;9.946;2023-07-20T11:32:07;24.50;99.90
5842;DHT22;2947;52.276;9.946;2023-07-20T11:34:34;24.40;99.90
5842;DHT22;2947;52.276;9.946;2023-07-20T11:37:00;24.40;99.90
5842;DHT22;2947;52.276;9.946;2023-07-20T11:39:29;24.10;99.90
5842;DHT22;2947;52.276;9.946;2023-07-20T11:41:56;23.90;99.90
5842;DHT22;2947;52.276;9.946;2023-07-20T11:44:24;23.80;99.90
5842;DHT22;2947;52.276;9.946;2023-07-20T11:47:10;23.00;99.90
5842;DHT22;2947;52.276;9.946;2023-07-20T11:52:09;23.80;99.90
5842;DHT22;2947;52.276;9.946;2023-07-20T11:54:38;24.10;99.90
5842;DHT22;2947;52.276;9.946;2023-07-20T11:57:05;24.10;99.90
5842;DHT22;2947;52.276;9.946;2023-07-20T11:59:32;24.20;99.90
5842;DHT22;2947;52.276;9.946;2023-07-20T12:02:02;24.40;99.90
5842;DHT22;2947;52.276;9.946;2023-07-20T12:04:33;24.50;99.90
5842;DHT22;2947;52.276;9.946;2023-07-20T12:06:59;24.70;99.90
5842;DHT22;2947;52.276;9.946;2023-07-20T12:09:26;24.80;99.90
5842;DHT22;2947;52.276;9.946;2023-07-20T12:11:52;24.70;99.90
5842;DHT22;2947;52.276;9.946;2023-07-20T12:14:18;24.80;99.90
5842;DHT22;2947;52.276;9.946;2023-07-20T12:16:44;24.80;99.90
5842;DHT22;2947;52.276;9.946;2023-07-20T12:19:13;25.50;99.90
5842;DHT22;2947;52.276;9.946;2023-07-20T12:21:41;25.00;99.90
5842;DHT22;2947;52.276;9.946;2023-07-20T12:24:08;25.10;99.90
5842;DHT22;2947;52.276;9.946;2023-07-20T12:26:35;25.10;99.90
5842;DHT22;2947;52.276;9.946;2023-07-20T12:29:04;24.70;99.90
5842;DHT22;2947;52.276;9.946;2023-07-20T12:31:34;25.00;99.90
5842;DHT22;2947;52.276;9.946;2023-07-20T12:34:03;25.00;99.90
5842;DHT22;2947;52.276;9.946;2023-07-20T12:36:29;25.20;99.90
5842;DHT22;2947;52.276;9.946;2023-07-20T12:38:56;25.10;99.90
5842;DHT22;2947;52.276;9.946;2023-07-20T12:41:22;25.10;99.90
5842;DHT22;2947;52.276;9.946;2023-07-20T12:43:48;24.90;99.90
5842;DHT22;2947;52.276;9.946;2023-07-20T12:46:15;24.70;99.90
5842;DHT22;2947;52.276;9.946;2023-07-20T12:48:41;24.70;99.90
5842;DHT22;2947;52.276;9.946;2023-07-20T12:51:08;24.90;99.90
5842;DHT22;2947;52.276;9.946;2023-07-20T12:53:35;25.70;99.90
5842;DHT22;2947;52.276;9.946;2023-07-20T12:56:01;24.80;99.90
5842;DHT22;2947;52.276;9.946;2023-07-20T12:58:27;25.70;99.90
5842;DHT22;2947;52.276;9.946;2023-07-20T13:00:53;24.90;99.90
5842;DHT22;2947;52.276;9.946;2023-07-20T13:03:20;25.30;99.90
5842;DHT22;2947;52.276;9.946;2023-07-20T13:05:46;24.90;99.90
5842;DHT22;2947;52.276;9.946;2023-07-20T13:08:13;25.70;99.90
5842;DHT22;2947;52.276;9.946;2023-07-20T13:10:39;25.00;99.90
5842;DHT22;2947;52.276;9.946;2023-07-20T13:13:05;25.00;99.90
5842;DHT22;2947;52.276;9.946;2023-07-20T13:15:32;25.10;99.90
5842;DHT22;2947;52.276;9.946;2023-07-20T13:18:06;25.00;99.90
5842;DHT22;2947;52.276;9.946;2023-07-20T13:20:32;24.90;99.90
5842;DHT22;2947;52.276;9.946;2023-07-20T13:22:58;25.10;99.90
5842;DHT22;2947;52.276;9.946;2023-07-20T13:25:24;25.00;99.90
5842;DHT22;2947;52.276;9.946;2023-07-20T13:27:50;24.60;99.90
5842;DHT22;2947;52.276;9.946;2023-07-20T13:30:17;24.50;99.90
5842;DHT22;2947;52.276;9.946;2023-07-20T13:32:44;24.50;99.90
5842;DHT22;2947;52.276;9.946;2023-07-20T13:35:10;24.30;99.90
5842;DHT22;2947;52.276;9.946;2023-07-20T13:37:37;24.20;99.90
5842;DHT22;2947;52.276;9.946;2023-07-20T13:40:04;24.20;99.90
5842;DHT22;2947;52.276;9.946;2023-07-20T13:42:31;24.10;99.90
5842;DHT22;2947;52.276;9.946;2023-07-20T13:44:57;24.00;99.90
5842;DHT22;2947;52.276;9.946;2023-07-20T13:47:23;23.90;99.90
5842;DHT22;2947;52.276;9.946;2023-07-20T13:49:49;23.90;99.90
5842;DHT22;2947;52.276;9.946;2023-07-20T13:52:15;23.90;99.90
5842;DHT22;2947;52.276;9.946;2023-07-20T13:54:42;25.20;99.90
5842;DHT22;2947;52.276;9.946;2023-07-20T13:57:09;24.20;99.90
5842;DHT22;2947;52.276;9.946;2023-07-20T13:59:35;24.00;99.90
5842;DHT22;2947;52.276;9.946;2023-07-20T14:02:01;23.90;99.90
5842;DHT22;2947;52.276;9.946;2023-07-20T14:04:28;23.70;99.90
5842;DHT22;2947;52.276;9.946;2023-07-20T14:06:54;24.40;99.90
5842;DHT22;2947;52.276;9.946;2023-07-20T14:09:20;23.50;99.90
5842;DHT22;2947;52.276;9.946;2023-07-20T14:11:45;23.40;99.90
5842;DHT22;2947;52.276;9.946;2023-07-20T14:14:11;23.50;99.90
5842;DHT22;2947;52.276;9.946;2023-07-20T14:16:37;23.50;99.90
5842;DHT22;2947;52.276;9.946;2023-07-20T14:19:03;23.50;99.90
5842;DHT22;2947;52.276;9.946;2023-07-20T14:21:30;23.30;99.90
5842;DHT22;2947;52.276;9.946;2023-07-20T14:23:56;24.10;99.90
5842;DHT22;2947;52.276;9.946;2023-07-20T14:26:23;23.10;99.90
5842;DHT22;2947;52.276;9.946;2023-07-20T14:28:49;23.00;99.90
5842;DHT22;2947;52.276;9.946;2023-07-20T14:31:15;23.80;99.90
5842;DHT22;2947;52.276;9.946;2023-07-20T14:33:41;22.90;99.90
5842;DHT22;2947;52.276;9.946;2023-07-20T14:36:06;22.80;99.90
5842;DHT22;2947;52.276;9.946;2023-07-20T14:38:34;23.00;99.90
5842;DHT22;2947;52.276;9.946;2023-07-20T14:41:00;22.60;99.90
5842;DHT22;2947;52.276;9.946;2023-07-20T14:43:26;22.60;99.90
5842;DHT22;2947;52.276;9.946;2023-07-20T14:45:51;22.70;99.90
5842;DHT22;2947;52.276;9.946;2023-07-20T14:48:17;22.70;99.90
5842;DHT22;2947;52.276;9.946;2023-07-20T14:50:43;22.80;99.90
5842;DHT22;2947;52.276;9.946;2023-07-20T14:53:11;24.50;99.90
5842;DHT22;2947;52.276;9.946;2023-07-20T14:55:38;22.90;99.90
5842;DHT22;2947;52.276;9.946;2023-07-20T14:58:04;22.90;99.90
5842;DHT22;2947;52.276;9.946;2023-07-20T15:00:30;22.80;99.90
5842;DHT22;2947;52.276;9.946;2023-07-20T15:02:56;23.00;99.90
5842;DHT22;2947;52.276;9.946;2023-07-20T15:05:23;22.70;99.90
5842;DHT22;2947;52.276;9.946;2023-07-20T15:07:49;22.70;99.90
5842;DHT22;2947;52.276;9.946;2023-07-20T15:10:16;22.80;99.90
5842;DHT22;2947;52.276;9.946;2023-07-20T15:12:41;22.90;99.90
5842;DHT22;2947;52.276;9.946;2023-07-20T15:15:09;23.10;99.90
5842;DHT22;2947;52.276;9.946;2023-07-20T15:17:37;22.70;99.90
5842;DHT22;2947;52.276;9.946;2023-07-20T15:20:05;22.80;99.90
5842;DHT22;2947;52.276;9.946;2023-07-20T15:22:35;22.70;99.90
5842;DHT22;2947;52.276;9.946;2023-07-20T15:25:05;22.70;99.90
5842;DHT22;2947;52.276;9.946;2023-07-20T15:27:32;22.90;99.90
5842;DHT22;2947;52.276;9.946;2023-07-20T15:29:58;22.90;99.90
5842;DHT22;2947;52.276;9.946;2023-07-20T15:32:24;23.00;99.90
5842;DHT22;2947;52.276;9.946;2023-07-20T15:34:50;23.30;99.90
5842;DHT22;2947;52.276;9.946;2023-07-20T15:37:16;23.00;99.90
5842;DHT22;2947;52.276;9.946;2023-07-20T15:39:41;23.90;99.90
5842;DHT22;2947;52.276;9.946;2023-07-20T15:42:07;22.90;99.90
5842;DHT22;2947;52.276;9.946;2023-07-20T15:44:34;21.60;99.90
5842;DHT22;2947;52.276;9.946;2023-07-20T15:47:00;23.20;99.90
5842;DHT22;2947;52.276;9.946;2023-07-20T15:49:27;22.40;99.90
5842;DHT22;2947;52.276;9.946;2023-07-20T15:51:53;22.40;99.90
5842;DHT22;2947;52.276;9.946;2023-07-20T15:54:20;22.40;99.90
5842;DHT22;2947;52.276;9.946;2023-07-20T15:56:46;22.20;99.90
5842;DHT22;2947;52.276;9.946;2023-07-20T15:59:13;22.30;99.90
5842;DHT22;2947;52.276;9.946;2023-07-20T16:01:40;22.40;99.90
5842;DHT22;2947;52.276;9.946;2023-07-20T16:04:08;22.20;99.90
5842;DHT22;2947;52.276;9.946;2023-07-20T16:06:34;22.10;99.90
5842;DHT22;2947;52.276;9.946;2023-07-20T16:09:04;23.30;99.90
5842;DHT22;2947;52.276;9.946;2023-07-20T16:11:31;22.20;99.90
5842;DHT22;2947;52.276;9.946;2023-07-20T16:13:58;22.20;99.90
5842;DHT22;2947;52.276;9.946;2023-07-20T16:16:23;22.10;99.90
5842;DHT22;2947;52.276;9.946;2023-07-20T16:18:49;22.20;99.90
5842;DHT22;2947;52.276;9.946;2023-07-20T16:21:16;22.20;99.90